createdAt,value
2018-12-18T00:00:18.490Z,2.70
2018-12-18T00:02:53.480Z,2.80
2018-12-18T00:05:33.613Z,2.70
2018-12-18T00:08:08.389Z,2.70
2018-12-18T00:10:52.329Z,2.70
2018-12-18T00:13:27.091Z,2.70
2018-12-18T00:16:01.758Z,2.60
2018-12-18T00:18:36.650Z,2.50
2018-12-18T00:21:11.339Z,2.50
2018-12-18T00:23:46.241Z,2.40
2018-12-18T00:26:21.078Z,2.40
2018-12-18T00:28:55.832Z,2.30
2018-12-18T00:31:30.666Z,2.40
2018-12-18T00:34:05.335Z,2.40
2018-12-18T00:36:40.166Z,2.40
2018-12-18T00:39:15.550Z,2.30
2018-12-18T00:41:52.386Z,2.30
2018-12-18T00:44:27.294Z,2.20
2018-12-18T00:47:02.101Z,2.30
2018-12-18T00:49:37.054Z,2.40
2018-12-18T00:52:12.024Z,2.40
2018-12-18T00:54:46.867Z,2.40
2018-12-18T00:57:21.693Z,2.40
2018-12-18T00:59:56.512Z,2.30
2018-12-18T01:02:31.173Z,2.30
2018-12-18T01:05:06.603Z,2.30
2018-12-18T01:07:41.330Z,2.30
2018-12-18T01:10:16.394Z,2.30
2018-12-18T01:12:51.200Z,2.20
2018-12-18T01:15:25.966Z,2.20
2018-12-18T01:18:00.727Z,2.20
2018-12-18T01:20:35.563Z,2.20
2018-12-18T01:23:10.390Z,2.10
2018-12-18T01:25:45.109Z,2.10
2018-12-18T01:28:19.959Z,2.10
2018-12-18T01:30:54.711Z,2.10
2018-12-18T01:33:29.506Z,2.10
2018-12-18T01:36:04.351Z,2.00
2018-12-18T01:38:39.452Z,2.00
2018-12-18T01:41:14.110Z,2.00
2018-12-18T01:43:49.095Z,2.00
2018-12-18T01:46:24.078Z,2.00
2018-12-18T01:48:58.903Z,2.00
2018-12-18T01:51:33.765Z,1.90
2018-12-18T01:54:08.530Z,2.00
2018-12-18T01:56:43.413Z,2.00
2018-12-18T01:59:18.130Z,2.00
2018-12-18T02:01:52.978Z,2.00
2018-12-18T02:04:27.804Z,2.10
2018-12-18T02:07:02.788Z,1.90
2018-12-18T02:09:37.706Z,1.90
2018-12-18T02:12:12.409Z,1.90
2018-12-18T02:14:47.227Z,1.80
2018-12-18T02:17:22.004Z,1.80
2018-12-18T02:19:56.798Z,1.80
2018-12-18T02:22:31.653Z,1.80
2018-12-18T02:25:06.659Z,1.80
2018-12-18T02:27:41.533Z,1.80
2018-12-18T02:30:16.245Z,1.80
2018-12-18T02:32:51.157Z,1.90
2018-12-18T02:35:25.892Z,1.90
2018-12-18T02:38:00.498Z,1.90
2018-12-18T02:40:35.345Z,1.90
2018-12-18T02:43:10.132Z,1.80
2018-12-18T02:45:44.926Z,1.80
2018-12-18T02:48:20.039Z,1.80
2018-12-18T02:50:56.134Z,1.80
2018-12-18T02:53:31.330Z,1.70
2018-12-18T02:56:06.156Z,1.60
2018-12-18T02:58:40.898Z,1.60
2018-12-18T03:01:15.767Z,1.50
2018-12-18T03:03:50.446Z,1.60
2018-12-18T03:06:25.172Z,1.70
2018-12-18T03:08:59.907Z,1.70
2018-12-18T03:11:34.764Z,1.70
2018-12-18T03:14:09.419Z,1.70
2018-12-18T03:16:44.346Z,1.80
2018-12-18T03:19:18.973Z,1.90
2018-12-18T03:21:53.801Z,1.80
2018-12-18T03:24:28.625Z,1.90
2018-12-18T03:27:03.518Z,2.00
2018-12-18T03:29:38.418Z,2.10
2018-12-18T03:32:18.486Z,2.10
2018-12-18T03:34:53.204Z,2.10
2018-12-18T03:37:27.988Z,2.00
2018-12-18T03:40:02.667Z,2.00
2018-12-18T03:42:37.599Z,1.90
2018-12-18T03:45:12.584Z,1.90
2018-12-18T03:47:47.490Z,1.80
2018-12-18T03:50:22.436Z,1.70
2018-12-18T03:52:57.287Z,1.70
2018-12-18T03:55:32.162Z,1.70
2018-12-18T03:58:07.026Z,1.70
2018-12-18T04:00:42.006Z,1.70
2018-12-18T04:03:16.685Z,1.70
2018-12-18T04:05:51.630Z,1.70
2018-12-18T04:08:26.422Z,1.60
2018-12-18T04:11:01.255Z,1.70
2018-12-18T04:13:36.176Z,1.70
2018-12-18T04:16:10.949Z,1.80
2018-12-18T04:18:45.921Z,1.90
2018-12-18T04:21:20.605Z,1.90
2018-12-18T04:23:55.507Z,2.00
2018-12-18T04:26:30.309Z,2.00
2018-12-18T04:29:05.083Z,2.00
2018-12-18T04:31:39.959Z,2.10
2018-12-18T04:34:14.661Z,2.20
2018-12-18T04:36:49.565Z,2.20
2018-12-18T04:39:24.500Z,2.10
2018-12-18T04:41:59.285Z,2.00
2018-12-18T04:44:34.216Z,2.10
2018-12-18T04:47:09.007Z,2.10
2018-12-18T04:49:43.856Z,2.10
2018-12-18T04:52:18.629Z,2.00
2018-12-18T04:54:53.658Z,2.00
2018-12-18T04:57:28.468Z,1.80
2018-12-18T05:00:03.434Z,1.70
2018-12-18T05:02:38.099Z,1.70
2018-12-18T05:05:12.867Z,1.70
2018-12-18T05:07:47.665Z,1.60
2018-12-18T05:10:22.385Z,1.60
2018-12-18T05:12:57.258Z,1.50
2018-12-18T05:15:32.057Z,1.40
2018-12-18T05:18:06.890Z,1.40
2018-12-18T05:20:41.616Z,1.40
2018-12-18T05:23:16.339Z,1.40
2018-12-18T05:25:51.302Z,1.40
2018-12-18T05:28:26.042Z,1.40
2018-12-18T05:31:00.821Z,1.30
2018-12-18T05:33:35.664Z,1.20
2018-12-18T05:36:10.412Z,1.10
2018-12-18T05:38:45.236Z,1.10
2018-12-18T05:41:20.034Z,1.00
2018-12-18T05:43:54.818Z,1.00
2018-12-18T05:46:29.544Z,1.10
2018-12-18T05:49:04.469Z,1.20
2018-12-18T05:51:39.109Z,1.20
2018-12-18T05:54:13.815Z,1.20
2018-12-18T05:56:48.562Z,1.20
2018-12-18T05:59:23.283Z,1.20
2018-12-18T06:01:58.223Z,1.10
2018-12-18T06:04:33.175Z,1.10
2018-12-18T06:07:07.983Z,1.00
2018-12-18T06:09:42.933Z,0.90
2018-12-18T06:12:17.736Z,0.80
2018-12-18T06:14:52.729Z,0.80
2018-12-18T06:17:27.446Z,0.70
2018-12-18T06:20:02.351Z,0.70
2018-12-18T06:22:37.196Z,0.70
2018-12-18T06:25:12.152Z,0.80
2018-12-18T06:27:46.753Z,0.80
2018-12-18T06:30:21.483Z,0.80
2018-12-18T06:33:02.710Z,0.80
2018-12-18T06:35:37.305Z,0.80
2018-12-18T06:38:12.057Z,0.80
2018-12-18T06:40:46.916Z,0.90
2018-12-18T06:43:21.808Z,0.90
2018-12-18T06:45:56.766Z,0.80
2018-12-18T06:48:31.865Z,0.80
2018-12-18T06:51:06.542Z,0.80
2018-12-18T06:53:41.503Z,0.80
2018-12-18T06:56:16.335Z,0.90
2018-12-18T06:58:51.170Z,0.90
2018-12-18T07:01:26.024Z,0.80
2018-12-18T07:04:00.667Z,0.80
2018-12-18T07:06:35.549Z,0.80
2018-12-18T07:09:10.292Z,0.70
2018-12-18T07:11:45.267Z,0.60
2018-12-18T07:14:20.110Z,0.60
2018-12-18T07:16:55.143Z,0.40
2018-12-18T07:19:29.905Z,0.20
2018-12-18T07:22:04.572Z,0.20
2018-12-18T07:24:39.397Z,0.20
2018-12-18T07:27:14.257Z,0.30
2018-12-18T07:29:49.127Z,0.40
2018-12-18T07:32:23.994Z,0.50
2018-12-18T07:34:58.769Z,0.50
2018-12-18T07:37:33.631Z,0.70
2018-12-18T07:40:08.473Z,0.70
2018-12-18T07:42:43.385Z,0.80
2018-12-18T07:45:18.144Z,0.80
2018-12-18T07:47:52.989Z,0.70
2018-12-18T07:50:27.743Z,0.80
2018-12-18T07:53:02.511Z,0.80
2018-12-18T07:55:37.210Z,0.90
2018-12-18T07:58:12.090Z,0.90
2018-12-18T08:00:47.092Z,1.00
2018-12-18T08:03:21.862Z,1.00
2018-12-18T08:05:56.414Z,1.10
2018-12-18T08:08:31.861Z,1.10
2018-12-18T08:11:07.163Z,1.10
2018-12-18T08:13:47.066Z,1.10
2018-12-18T08:16:22.011Z,1.20
2018-12-18T08:18:56.741Z,1.30
2018-12-18T08:21:31.502Z,1.30
2018-12-18T08:24:06.309Z,1.30
2018-12-18T08:26:41.320Z,1.40
2018-12-18T08:29:16.256Z,1.40
2018-12-18T08:31:51.103Z,1.40
2018-12-18T08:34:25.976Z,1.40
2018-12-18T08:37:07.408Z,1.30
2018-12-18T08:39:42.168Z,1.30
2018-12-18T08:42:17.047Z,1.30
2018-12-18T08:44:51.873Z,1.30
2018-12-18T08:47:26.706Z,1.20
2018-12-18T08:50:01.845Z,1.20
2018-12-18T08:52:36.844Z,1.30
2018-12-18T08:55:11.902Z,1.30
2018-12-18T08:57:46.571Z,1.30
2018-12-18T09:00:21.487Z,1.40
2018-12-18T09:02:56.365Z,1.50
2018-12-18T09:05:31.492Z,1.50
2018-12-18T09:08:06.428Z,1.60
2018-12-18T09:10:41.228Z,1.50
2018-12-18T09:13:15.981Z,1.50
2018-12-18T09:15:57.943Z,1.40
2018-12-18T09:18:32.808Z,1.50
2018-12-18T09:21:07.705Z,1.50
2018-12-18T09:23:42.575Z,1.50
2018-12-18T09:26:17.369Z,1.50
2018-12-18T09:28:52.103Z,1.50
2018-12-18T09:31:26.828Z,1.40
2018-12-18T09:34:01.575Z,1.40
2018-12-18T09:36:39.149Z,1.40
2018-12-18T09:39:23.711Z,1.40
2018-12-18T09:42:03.610Z,1.40
2018-12-18T09:44:38.459Z,1.60
2018-12-18T09:47:13.355Z,1.90
2018-12-18T09:49:48.285Z,2.10
2018-12-18T09:52:23.089Z,2.40
2018-12-18T09:54:57.854Z,2.60
2018-12-18T09:58:41.582Z,2.70
2018-12-18T10:01:16.303Z,2.70
2018-12-18T10:03:51.157Z,2.70
2018-12-18T10:06:26.071Z,2.50
2018-12-18T10:09:00.952Z,2.40
2018-12-18T10:11:35.656Z,2.50
2018-12-18T10:14:10.594Z,2.40
2018-12-18T10:16:45.512Z,2.40
2018-12-18T10:19:20.533Z,2.40
2018-12-18T10:21:55.269Z,2.40
2018-12-18T10:24:30.101Z,2.40
2018-12-18T10:27:04.913Z,2.40
2018-12-18T10:29:39.987Z,2.40
2018-12-18T10:32:14.730Z,2.40
2018-12-18T10:34:49.414Z,2.40
2018-12-18T10:37:24.365Z,2.50
2018-12-18T10:39:59.204Z,2.60
2018-12-18T10:42:34.064Z,2.50
2018-12-18T10:45:13.838Z,2.50
2018-12-18T10:47:48.600Z,2.60
2018-12-18T10:50:23.488Z,2.60
2018-12-18T10:52:58.419Z,2.60
2018-12-18T10:55:33.425Z,2.50
2018-12-18T10:58:08.374Z,2.60
2018-12-18T11:00:48.717Z,2.70
2018-12-18T11:03:30.125Z,2.70
2018-12-18T11:06:09.910Z,2.70
2018-12-18T11:08:41.746Z,2.70
2018-12-18T11:11:16.661Z,2.60
2018-12-18T11:13:51.386Z,2.60
2018-12-18T11:16:26.132Z,2.70
2018-12-18T11:19:01.014Z,2.70
2018-12-18T11:21:35.947Z,2.50
2018-12-18T11:24:11.233Z,2.50
2018-12-18T11:26:46.163Z,2.50
2018-12-18T11:29:20.891Z,2.40
2018-12-18T11:31:55.827Z,2.40
2018-12-18T11:34:30.652Z,2.40
2018-12-18T11:37:05.530Z,2.40
2018-12-18T11:39:40.347Z,2.20
2018-12-18T11:42:15.109Z,2.30
2018-12-18T11:44:49.721Z,2.20
2018-12-18T11:47:24.676Z,2.10
2018-12-18T11:49:59.314Z,2.10
2018-12-18T11:52:34.289Z,2.20
2018-12-18T11:55:09.219Z,2.20
2018-12-18T11:57:44.104Z,2.20
2018-12-18T12:00:18.949Z,2.20
2018-12-18T12:02:53.691Z,2.30
2018-12-18T12:05:28.399Z,2.30
2018-12-18T12:08:03.332Z,2.30
2018-12-18T12:10:38.102Z,2.30
2018-12-18T12:13:13.651Z,2.30
2018-12-18T12:15:48.383Z,2.30
2018-12-18T12:18:23.032Z,2.40
2018-12-18T12:20:57.818Z,2.20
2018-12-18T12:23:32.700Z,2.10
2018-12-18T12:26:12.906Z,2.10
2018-12-18T12:28:47.511Z,2.00
2018-12-18T12:31:22.411Z,2.00
2018-12-18T12:33:57.255Z,1.90
2018-12-18T12:36:32.338Z,1.80
2018-12-18T12:39:08.995Z,1.80
2018-12-18T12:41:43.800Z,1.70
2018-12-18T12:44:18.740Z,1.80
2018-12-18T12:46:53.649Z,1.90
2018-12-18T12:49:33.474Z,1.90
2018-12-18T12:52:08.103Z,1.90
2018-12-18T12:54:42.946Z,2.00
2018-12-18T12:57:17.819Z,2.00
2018-12-18T12:59:52.654Z,2.00
2018-12-18T13:02:27.351Z,2.00
2018-12-18T13:05:02.138Z,1.80
2018-12-18T13:07:36.831Z,1.80
2018-12-18T13:10:11.630Z,1.80
2018-12-18T13:12:46.318Z,1.60
2018-12-18T13:15:21.252Z,1.20
2018-12-18T13:17:56.041Z,1.10
2018-12-18T13:20:30.986Z,1.10
2018-12-18T13:23:05.798Z,1.30
2018-12-18T13:25:40.644Z,1.40
2018-12-18T13:28:16.107Z,1.40
2018-12-18T13:30:50.882Z,1.40
2018-12-18T13:33:25.620Z,1.30
2018-12-18T13:36:00.565Z,1.40
2018-12-18T13:38:35.418Z,1.30
2018-12-18T13:41:10.100Z,1.40
2018-12-18T13:43:44.724Z,1.50
2018-12-18T13:46:19.383Z,1.60
2018-12-18T13:48:54.288Z,1.70
2018-12-18T13:51:29.225Z,1.70
2018-12-18T13:54:04.074Z,1.70
2018-12-18T13:56:39.017Z,1.50
2018-12-18T13:59:13.873Z,1.50
2018-12-18T14:01:48.610Z,1.60
2018-12-18T14:04:23.529Z,1.50
2018-12-18T14:06:58.364Z,1.50
2018-12-18T14:09:33.098Z,1.40
2018-12-18T14:12:07.950Z,1.40
2018-12-18T14:14:42.734Z,1.40
2018-12-18T14:17:17.821Z,1.50
2018-12-18T14:19:52.477Z,1.50
2018-12-18T14:22:27.281Z,1.40
2018-12-18T14:25:02.134Z,1.40
2018-12-18T14:27:36.987Z,1.40
2018-12-18T14:30:12.102Z,1.40
2018-12-18T14:32:46.833Z,1.40
2018-12-18T14:35:22.036Z,1.50
2018-12-18T14:37:56.720Z,1.40
2018-12-18T14:40:31.620Z,1.40
2018-12-18T14:43:06.285Z,1.40
2018-12-18T14:45:40.936Z,1.30
2018-12-18T14:48:15.575Z,1.30
2018-12-18T14:50:50.464Z,1.30
2018-12-18T14:53:25.362Z,1.30
2018-12-18T14:56:00.168Z,1.40
2018-12-18T14:58:35.037Z,1.40
2018-12-18T15:01:09.904Z,1.40
2018-12-18T15:03:44.688Z,1.40
2018-12-18T15:06:19.634Z,1.30
2018-12-18T15:08:54.495Z,1.30
2018-12-18T15:11:29.237Z,1.30
2018-12-18T15:14:04.051Z,1.30
2018-12-18T15:16:38.898Z,1.30
2018-12-18T15:19:13.779Z,1.40
2018-12-18T15:21:48.545Z,1.40
2018-12-18T15:24:23.945Z,1.30
2018-12-18T15:26:58.671Z,1.40
2018-12-18T15:29:33.661Z,1.30
2018-12-18T15:32:08.558Z,1.30
2018-12-18T15:34:43.372Z,1.20
2018-12-18T15:37:18.214Z,1.20
2018-12-18T15:39:53.180Z,1.20
2018-12-18T15:42:28.078Z,1.20
2018-12-18T15:45:02.949Z,1.20
2018-12-18T15:47:37.749Z,1.20
2018-12-18T15:50:12.933Z,1.30
2018-12-18T15:52:47.893Z,1.30
2018-12-18T15:55:23.747Z,1.20
2018-12-18T15:57:58.615Z,1.20
2018-12-18T16:00:33.543Z,1.30
2018-12-18T16:03:08.311Z,1.30
2018-12-18T16:05:43.160Z,1.40
2018-12-18T16:08:17.788Z,1.30
2018-12-18T16:10:52.649Z,1.40
2018-12-18T16:13:27.466Z,1.40
2018-12-18T16:16:09.462Z,1.40
2018-12-18T16:18:44.315Z,1.40
2018-12-18T16:21:19.110Z,1.30
2018-12-18T16:23:53.936Z,1.20
2018-12-18T16:26:28.768Z,1.10
2018-12-18T16:29:03.744Z,1.10
2018-12-18T16:31:38.481Z,1.10
2018-12-18T16:34:13.317Z,1.10
2018-12-18T16:36:48.263Z,1.10
2018-12-18T16:39:23.050Z,1.20
2018-12-18T16:41:57.834Z,1.10
2018-12-18T16:44:32.568Z,1.10
2018-12-18T16:47:07.240Z,1.10
2018-12-18T16:49:42.129Z,1.00
2018-12-18T16:52:22.414Z,1.10
2018-12-18T16:54:57.267Z,1.00
2018-12-18T16:57:32.096Z,1.00
2018-12-18T17:00:09.374Z,0.90
2018-12-18T17:02:45.038Z,1.00
2018-12-18T17:05:19.779Z,1.00
2018-12-18T17:07:54.699Z,1.00
2018-12-18T17:10:29.552Z,1.00
2018-12-18T17:13:04.403Z,1.00
2018-12-18T17:15:39.193Z,1.00
2018-12-18T17:18:14.033Z,1.00
2018-12-18T17:20:49.041Z,0.90
2018-12-18T17:23:23.716Z,1.00
2018-12-18T17:25:58.443Z,1.00
2018-12-18T17:28:33.223Z,1.00
2018-12-18T17:31:08.054Z,1.00
2018-12-18T17:33:42.884Z,1.00
2018-12-18T17:36:17.868Z,1.20
2018-12-18T17:38:52.776Z,1.20
2018-12-18T17:41:27.596Z,1.20
2018-12-18T17:44:02.410Z,1.20
2018-12-18T17:46:37.249Z,1.20
2018-12-18T17:49:11.858Z,1.20
2018-12-18T17:51:46.704Z,1.30
2018-12-18T17:54:21.537Z,1.40
2018-12-18T17:56:56.441Z,1.40
2018-12-18T17:59:31.408Z,1.40
2018-12-18T18:02:06.337Z,1.40
2018-12-18T18:04:41.287Z,1.40
2018-12-18T18:07:15.859Z,1.30
2018-12-18T18:09:50.766Z,1.20
2018-12-18T18:12:29.880Z,1.20
2018-12-18T18:15:02.254Z,1.20
2018-12-18T18:17:36.960Z,1.20
2018-12-18T18:20:12.180Z,1.20
2018-12-18T18:22:46.992Z,1.10
2018-12-18T18:25:21.847Z,1.10
2018-12-18T18:27:56.782Z,1.00
2018-12-18T18:30:31.917Z,0.80
2018-12-18T18:33:06.475Z,0.70
2018-12-18T18:35:41.257Z,0.70
2018-12-18T18:38:16.172Z,0.70
2018-12-18T18:40:50.805Z,0.70
2018-12-18T18:43:25.519Z,0.80
2018-12-18T18:46:00.366Z,0.80
2018-12-18T18:48:35.611Z,0.90
2018-12-18T18:51:10.480Z,0.90
2018-12-18T18:53:45.295Z,0.90
2018-12-18T18:56:20.496Z,1.00
2018-12-18T18:58:55.404Z,1.00
2018-12-18T19:01:30.131Z,1.00
2018-12-18T19:04:05.105Z,0.90
2018-12-18T19:06:40.211Z,0.90
2018-12-18T19:09:15.023Z,0.70
2018-12-18T19:11:49.677Z,0.70
2018-12-18T19:14:24.578Z,0.60
2018-12-18T19:16:59.609Z,0.60
2018-12-18T19:19:34.653Z,0.60
2018-12-18T19:22:09.612Z,0.70
2018-12-18T19:24:44.357Z,0.70
2018-12-18T19:27:19.104Z,0.60
2018-12-18T19:29:53.775Z,0.70
2018-12-18T19:32:28.597Z,0.80
2018-12-18T19:35:03.553Z,0.80
2018-12-18T19:37:38.213Z,0.90
2018-12-18T19:40:13.083Z,0.90
2018-12-18T19:42:47.958Z,0.90
2018-12-18T19:45:22.721Z,0.90
2018-12-18T19:47:57.529Z,0.90
2018-12-18T19:50:32.434Z,0.80
2018-12-18T19:53:07.210Z,0.90
2018-12-18T19:55:42.102Z,0.90
2018-12-18T19:58:16.825Z,0.90
2018-12-18T20:00:51.811Z,0.90
2018-12-18T20:03:26.537Z,0.90
2018-12-18T20:06:01.384Z,1.00
2018-12-18T20:08:36.371Z,1.10
2018-12-18T20:11:11.029Z,1.20
2018-12-18T20:13:46.041Z,1.10
2018-12-18T20:16:20.910Z,1.10
2018-12-18T20:18:55.850Z,1.10
2018-12-18T20:21:30.556Z,1.10
2018-12-18T20:24:05.203Z,1.10
2018-12-18T20:26:40.020Z,1.00
2018-12-18T20:29:14.850Z,1.00
2018-12-18T20:31:49.710Z,1.00
2018-12-18T20:34:24.704Z,1.00
2018-12-18T20:36:59.631Z,1.10
2018-12-18T20:39:34.485Z,1.20
2018-12-18T20:42:09.204Z,1.20
2018-12-18T20:44:44.003Z,1.20
2018-12-18T20:47:18.698Z,1.20
2018-12-18T20:49:53.523Z,1.20
2018-12-18T20:52:28.340Z,1.30
2018-12-18T20:55:03.217Z,1.20
2018-12-18T20:57:37.902Z,1.20
2018-12-18T21:00:13.839Z,1.20
2018-12-18T21:02:48.480Z,1.20
2018-12-18T21:05:23.427Z,1.10
2018-12-18T21:07:58.500Z,1.10
2018-12-18T21:10:33.358Z,1.10
2018-12-18T21:13:13.530Z,1.10
2018-12-18T21:15:48.690Z,1.00
2018-12-18T21:18:23.377Z,1.00
2018-12-18T21:20:58.109Z,1.10
2018-12-18T21:23:32.858Z,1.00
2018-12-18T21:26:07.688Z,1.00
2018-12-18T21:28:42.716Z,1.10
2018-12-18T21:31:17.580Z,1.10
2018-12-18T21:33:52.395Z,1.10
2018-12-18T21:36:28.114Z,1.10
2018-12-18T21:39:03.060Z,1.20
2018-12-18T21:41:37.776Z,1.20
2018-12-18T21:44:12.522Z,1.20
2018-12-18T21:46:47.938Z,1.10
2018-12-18T21:49:23.045Z,1.20
2018-12-18T21:51:58.131Z,1.10
2018-12-18T21:54:33.027Z,1.20
2018-12-18T21:57:07.700Z,1.20
2018-12-18T21:59:42.819Z,1.10
2018-12-18T22:02:17.472Z,1.10
2018-12-18T22:04:52.590Z,1.10
2018-12-18T22:07:27.254Z,1.20
2018-12-18T22:10:02.136Z,1.20
2018-12-18T22:12:37.013Z,1.20
2018-12-18T22:15:17.285Z,1.10
2018-12-18T22:17:52.167Z,1.10
2018-12-18T22:20:27.007Z,1.00
2018-12-18T22:23:01.825Z,1.00
2018-12-18T22:25:36.881Z,1.00
2018-12-18T22:28:12.147Z,1.00
2018-12-18T22:30:46.930Z,0.90
2018-12-18T22:33:21.780Z,0.90
2018-12-18T22:35:56.512Z,0.90
2018-12-18T22:38:31.229Z,0.80
2018-12-18T22:41:06.205Z,0.70
2018-12-18T22:43:41.255Z,0.70
2018-12-18T22:46:15.901Z,0.70
2018-12-18T22:48:50.673Z,0.70
2018-12-18T22:51:25.559Z,0.70
2018-12-18T22:54:00.578Z,0.80
2018-12-18T22:56:35.382Z,0.90
2018-12-18T22:59:10.058Z,0.90
2018-12-18T23:01:44.858Z,0.90
2018-12-18T23:04:19.742Z,0.80
2018-12-18T23:06:54.537Z,0.80
2018-12-18T23:09:29.498Z,0.80
2018-12-18T23:12:04.528Z,0.80
2018-12-18T23:14:39.258Z,0.80
2018-12-18T23:17:14.174Z,0.80
2018-12-18T23:19:48.943Z,0.80
2018-12-18T23:22:23.660Z,0.80
2018-12-18T23:24:58.464Z,0.90
2018-12-18T23:27:33.106Z,0.90
2018-12-18T23:30:07.996Z,1.00
2018-12-18T23:32:49.648Z,1.00
2018-12-18T23:35:24.524Z,1.00
2018-12-18T23:37:59.180Z,0.90
2018-12-18T23:40:34.107Z,0.90
2018-12-18T23:43:08.817Z,1.00
2018-12-18T23:45:43.777Z,1.10
2018-12-18T23:48:18.589Z,1.10
2018-12-18T23:50:53.483Z,1.10
2018-12-18T23:53:28.252Z,1.10
2018-12-18T23:56:03.032Z,1.10
2018-12-18T23:58:37.764Z,1.20
